Terminal Aerodrome Forecast
Issued by NWS St Louis, MO

Home | Current Version | Previous Version | Text Only | Print | Product List | Glossary On
Versions: 1 2 3 4 5 6 7 8 9 10 11 12 13 14 15 16 17 18 19 20 21 22 23 24 25 26 27 28 29 30 31 32
000
FTUS43 KLSX 071120
TAFSTL
TAF
KSTL 071120Z 0712/0818 30008KT P6SM -RA OVC012
     FM071800 01008KT P6SM OVC015
     FM080000 05007KT P6SM BKN025
     FM080600 07004KT P6SM BKN035
     FM081200 09005KT 5SM -SHRA VCTS BKN035CB
     FM081500 11005KT 4SM -TSRA BR BKN025CB=

USA.gov is the U.S. government's official web portal to all federal, state and local government web resources and services.